Terminal Aerodrome Forecast
Issued by NWS

Home | Current Version | Previous Version | Text Only | Print | Product List | Glossary On
Versions: 1 2 3 4 5 6 7 8 9 10 11 12 13 14 15 16 17 18 19 20 21 22
000
FTUS43 KDVN 212340
TAFCID
TAF
KCID 212340Z 2200/2224 22010KT P6SM VCSH SCT015 BKN035
      TEMPO 2200/2201 32020G35KT 3SM TSRA OVC015CB
     FM220100 03012G19KT P6SM BKN060
     FM220200 08015G21KT P6SM BKN100
     FM220400 12012KT 6SM BR VCTS BKN040CB
     FM220900 27010KT 3SM BR BKN020
     FM221500 32015G22KT P6SM SCT035=

USA.gov is the U.S. government's official web portal to all federal, state and local government web resources and services.